sensor_id;sensor_type;location;lat;lon;timestamp;temperature;humidity
7822;DHT22;3956;50.558;9.678;2023-03-21T00:00:01;7.70;1.00
7822;DHT22;3956;50.558;9.678;2023-03-21T00:02:30;7.80;1.00
7822;DHT22;3956;50.558;9.678;2023-03-21T00:04:59;7.70;1.00
7822;DHT22;3956;50.558;9.678;2023-03-21T00:07:39;7.70;1.00
7822;DHT22;3956;50.558;9.678;2023-03-21T00:10:09;7.70;1.00
7822;DHT22;3956;50.558;9.678;2023-03-21T00:12:58;7.70;1.00
7822;DHT22;3956;50.558;9.678;2023-03-21T00:15:26;7.70;1.00
7822;DHT22;3956;50.558;9.678;2023-03-21T00:18:08;7.60;1.00
7822;DHT22;3956;50.558;9.678;2023-03-21T00:20:38;7.60;1.00
7822;DHT22;3956;50.558;9.678;2023-03-21T00:23:06;7.60;1.00
7822;DHT22;3956;50.558;9.678;2023-03-21T00:25:36;7.60;1.00
7822;DHT22;3956;50.558;9.678;2023-03-21T00:28:05;7.60;1.00
7822;DHT22;3956;50.558;9.678;2023-03-21T00:30:34;7.50;1.00
7822;DHT22;3956;50.558;9.678;2023-03-21T00:33:03;7.60;1.00
7822;DHT22;3956;50.558;9.678;2023-03-21T00:35:49;7.60;1.00
7822;DHT22;3956;50.558;9.678;2023-03-21T00:38:30;7.70;1.00
7822;DHT22;3956;50.558;9.678;2023-03-21T00:41:03;7.60;1.00
7822;DHT22;3956;50.558;9.678;2023-03-21T00:43:49;7.60;1.00
7822;DHT22;3956;50.558;9.678;2023-03-21T00:46:19;7.60;1.00
7822;DHT22;3956;50.558;9.678;2023-03-21T00:48:49;7.60;1.00
7822;DHT22;3956;50.558;9.678;2023-03-21T00:51:21;7.60;1.00
7822;DHT22;3956;50.558;9.678;2023-03-21T00:53:54;7.60;1.00
7822;DHT22;3956;50.558;9.678;2023-03-21T00:56:24;7.60;1.00
7822;DHT22;3956;50.558;9.678;2023-03-21T00:58:52;7.50;1.00
7822;DHT22;3956;50.558;9.678;2023-03-21T01:01:21;7.50;1.00
7822;DHT22;3956;50.558;9.678;2023-03-21T01:03:49;7.60;1.00
7822;DHT22;3956;50.558;9.678;2023-03-21T01:06:30;7.60;1.00
7822;DHT22;3956;50.558;9.678;2023-03-21T01:08:58;7.60;1.00
7822;DHT22;3956;50.558;9.678;2023-03-21T01:11:29;7.50;1.00
7822;DHT22;3956;50.558;9.678;2023-03-21T01:13:59;7.50;1.00
7822;DHT22;3956;50.558;9.678;2023-03-21T01:16:47;7.50;1.00
7822;DHT22;3956;50.558;9.678;2023-03-21T01:19:18;7.60;1.00
7822;DHT22;3956;50.558;9.678;2023-03-21T01:21:58;7.60;1.00
7822;DHT22;3956;50.558;9.678;2023-03-21T01:24:28;7.50;1.00
7822;DHT22;3956;50.558;9.678;2023-03-21T01:27:04;7.60;1.00
7822;DHT22;3956;50.558;9.678;2023-03-21T01:29:34;7.60;1.00
7822;DHT22;3956;50.558;9.678;2023-03-21T01:32:04;7.60;1.00
7822;DHT22;3956;50.558;9.678;2023-03-21T01:34:41;7.50;1.00
7822;DHT22;3956;50.558;9.678;2023-03-21T01:37:10;7.60;1.00
7822;DHT22;3956;50.558;9.678;2023-03-21T01:39:43;7.60;1.00
7822;DHT22;3956;50.558;9.678;2023-03-21T01:42:13;7.60;1.00
7822;DHT22;3956;50.558;9.678;2023-03-21T01:44:55;7.60;1.00
7822;DHT22;3956;50.558;9.678;2023-03-21T01:47:24;7.60;1.00
7822;DHT22;3956;50.558;9.678;2023-03-21T01:49:55;7.60;1.00
7822;DHT22;3956;50.558;9.678;2023-03-21T01:52:27;7.60;1.00
7822;DHT22;3956;50.558;9.678;2023-03-21T01:55:06;7.60;1.00
7822;DHT22;3956;50.558;9.678;2023-03-21T01:57:41;7.70;1.00
7822;DHT22;3956;50.558;9.678;2023-03-21T02:00:30;7.70;1.00
7822;DHT22;3956;50.558;9.678;2023-03-21T02:03:00;7.70;1.00
7822;DHT22;3956;50.558;9.678;2023-03-21T02:05:49;7.70;1.00
7822;DHT22;3956;50.558;9.678;2023-03-21T02:08:19;7.70;1.00
7822;DHT22;3956;50.558;9.678;2023-03-21T02:10:59;7.70;1.00
7822;DHT22;3956;50.558;9.678;2023-03-21T02:13:28;7.60;1.00
7822;DHT22;3956;50.558;9.678;2023-03-21T02:16:11;7.60;1.00
7822;DHT22;3956;50.558;9.678;2023-03-21T02:18:50;7.60;1.00
7822;DHT22;3956;50.558;9.678;2023-03-21T02:27:51;7.50;1.00
7822;DHT22;3956;50.558;9.678;2023-03-21T02:30:40;7.50;1.00
7822;DHT22;3956;50.558;9.678;2023-03-21T02:33:40;7.50;1.00
7822;DHT22;3956;50.558;9.678;2023-03-21T02:36:34;7.60;1.00
7822;DHT22;3956;50.558;9.678;2023-03-21T02:39:11;7.60;1.00
7822;DHT22;3956;50.558;9.678;2023-03-21T02:41:46;7.60;1.00
7822;DHT22;3956;50.558;9.678;2023-03-21T02:44:20;7.50;1.00
7822;DHT22;3956;50.558;9.678;2023-03-21T02:46:51;7.60;1.00
7822;DHT22;3956;50.558;9.678;2023-03-21T02:49:36;7.60;1.00
7822;DHT22;3956;50.558;9.678;2023-03-21T02:52:12;7.60;1.00
7822;DHT22;3956;50.558;9.678;2023-03-21T02:54:56;7.50;1.00
7822;DHT22;3956;50.558;9.678;2023-03-21T02:57:25;7.40;1.00
7822;DHT22;3956;50.558;9.678;2023-03-21T03:00:09;7.50;1.00
7822;DHT22;3956;50.558;9.678;2023-03-21T03:02:44;7.50;1.00
7822;DHT22;3956;50.558;9.678;2023-03-21T03:05:19;7.50;1.00
7822;DHT22;3956;50.558;9.678;2023-03-21T03:08:15;7.50;1.00
7822;DHT22;3956;50.558;9.678;2023-03-21T03:11:00;7.40;1.00
7822;DHT22;3956;50.558;9.678;2023-03-21T03:13:39;7.50;1.00
7822;DHT22;3956;50.558;9.678;2023-03-21T03:16:18;7.50;1.00
7822;DHT22;3956;50.558;9.678;2023-03-21T03:18:53;7.50;1.00
7822;DHT22;3956;50.558;9.678;2023-03-21T03:21:25;7.50;1.00
7822;DHT22;3956;50.558;9.678;2023-03-21T03:26:34;7.50;1.00
7822;DHT22;3956;50.558;9.678;2023-03-21T03:29:07;7.50;1.00
7822;DHT22;3956;50.558;9.678;2023-03-21T03:31:38;7.40;1.00
7822;DHT22;3956;50.558;9.678;2023-03-21T03:34:11;7.40;1.00
7822;DHT22;3956;50.558;9.678;2023-03-21T03:36:43;7.40;1.00
7822;DHT22;3956;50.558;9.678;2023-03-21T03:39:14;7.50;1.00
7822;DHT22;3956;50.558;9.678;2023-03-21T03:41:47;7.50;1.00
7822;DHT22;3956;50.558;9.678;2023-03-21T03:44:37;7.50;1.00
7822;DHT22;3956;50.558;9.678;2023-03-21T03:47:08;7.50;1.00
7822;DHT22;3956;50.558;9.678;2023-03-21T03:49:54;7.50;1.00
7822;DHT22;3956;50.558;9.678;2023-03-21T03:52:27;7.50;1.00
7822;DHT22;3956;50.558;9.678;2023-03-21T03:54:59;7.50;1.00
7822;DHT22;3956;50.558;9.678;2023-03-21T03:57:40;7.40;1.00
7822;DHT22;3956;50.558;9.678;2023-03-21T04:00:11;7.50;1.00
7822;DHT22;3956;50.558;9.678;2023-03-21T04:02:45;7.50;1.00
7822;DHT22;3956;50.558;9.678;2023-03-21T04:05:16;7.50;1.00
7822;DHT22;3956;50.558;9.678;2023-03-21T04:07:47;7.50;1.00
7822;DHT22;3956;50.558;9.678;2023-03-21T04:10:19;7.50;1.00
7822;DHT22;3956;50.558;9.678;2023-03-21T04:12:50;7.50;1.00
7822;DHT22;3956;50.558;9.678;2023-03-21T04:15:22;7.50;1.00
7822;DHT22;3956;50.558;9.678;2023-03-21T04:17:50;7.50;1.00
7822;DHT22;3956;50.558;9.678;2023-03-21T04:20:21;7.50;1.00
7822;DHT22;3956;50.558;9.678;2023-03-21T04:23:09;7.50;1.00
7822;DHT22;3956;50.558;9.678;2023-03-21T04:25:40;7.50;1.00
7822;DHT22;3956;50.558;9.678;2023-03-21T04:28:27;7.50;1.00
7822;DHT22;3956;50.558;9.678;2023-03-21T04:31:09;7.40;1.00
7822;DHT22;3956;50.558;9.678;2023-03-21T04:33:51;7.50;1.00
7822;DHT22;3956;50.558;9.678;2023-03-21T04:36:22;7.50;1.00
7822;DHT22;3956;50.558;9.678;2023-03-21T04:39:00;7.50;1.00
7822;DHT22;3956;50.558;9.678;2023-03-21T04:41:31;7.50;1.00
7822;DHT22;3956;50.558;9.678;2023-03-21T04:44:05;7.50;1.00
7822;DHT22;3956;50.558;9.678;2023-03-21T04:46:34;7.40;1.00
7822;DHT22;3956;50.558;9.678;2023-03-21T04:49:03;7.30;1.00
7822;DHT22;3956;50.558;9.678;2023-03-21T04:51:34;7.40;1.00
7822;DHT22;3956;50.558;9.678;2023-03-21T04:54:03;7.40;1.00
7822;DHT22;3956;50.558;9.678;2023-03-21T04:56:31;7.40;1.00
7822;DHT22;3956;50.558;9.678;2023-03-21T04:59:07;7.30;1.00
7822;DHT22;3956;50.558;9.678;2023-03-21T05:01:37;7.30;1.00
7822;DHT22;3956;50.558;9.678;2023-03-21T05:04:12;7.40;1.00
7822;DHT22;3956;50.558;9.678;2023-03-21T05:06:45;7.40;1.00
7822;DHT22;3956;50.558;9.678;2023-03-21T05:09:28;7.40;1.00
7822;DHT22;3956;50.558;9.678;2023-03-21T05:12:03;7.40;1.00
7822;DHT22;3956;50.558;9.678;2023-03-21T05:14:34;7.40;1.00
7822;DHT22;3956;50.558;9.678;2023-03-21T05:17:05;7.40;1.00
7822;DHT22;3956;50.558;9.678;2023-03-21T05:19:50;7.40;1.00
7822;DHT22;3956;50.558;9.678;2023-03-21T05:22:59;7.40;1.00
7822;DHT22;3956;50.558;9.678;2023-03-21T05:25:27;7.40;1.00
7822;DHT22;3956;50.558;9.678;2023-03-21T05:28:05;7.40;1.00
7822;DHT22;3956;50.558;9.678;2023-03-21T05:30:36;7.40;1.00
7822;DHT22;3956;50.558;9.678;2023-03-21T05:33:05;7.40;1.00
7822;DHT22;3956;50.558;9.678;2023-03-21T05:35:33;7.30;1.00
7822;DHT22;3956;50.558;9.678;2023-03-21T05:38:03;7.40;1.00
7822;DHT22;3956;50.558;9.678;2023-03-21T05:40:31;7.40;1.00
7822;DHT22;3956;50.558;9.678;2023-03-21T05:43:00;7.40;1.00
7822;DHT22;3956;50.558;9.678;2023-03-21T05:45:28;7.40;1.00
7822;DHT22;3956;50.558;9.678;2023-03-21T05:47:58;7.40;1.00
7822;DHT22;3956;50.558;9.678;2023-03-21T05:50:27;7.50;1.00
7822;DHT22;3956;50.558;9.678;2023-03-21T05:53:00;7.50;1.00
7822;DHT22;3956;50.558;9.678;2023-03-21T05:55:28;7.50;1.00
7822;DHT22;3956;50.558;9.678;2023-03-21T05:57:56;7.50;1.00
7822;DHT22;3956;50.558;9.678;2023-03-21T06:00:25;7.60;1.00
7822;DHT22;3956;50.558;9.678;2023-03-21T06:02:57;7.60;1.00
7822;DHT22;3956;50.558;9.678;2023-03-21T06:05:26;7.60;1.00
7822;DHT22;3956;50.558;9.678;2023-03-21T06:07:57;7.60;1.00
7822;DHT22;3956;50.558;9.678;2023-03-21T06:10:32;7.70;1.00
7822;DHT22;3956;50.558;9.678;2023-03-21T06:13:01;7.80;1.00
7822;DHT22;3956;50.558;9.678;2023-03-21T06:15:29;7.80;1.00
7822;DHT22;3956;50.558;9.678;2023-03-21T06:18:00;7.80;1.00
7822;DHT22;3956;50.558;9.678;2023-03-21T06:20:29;7.80;1.00
7822;DHT22;3956;50.558;9.678;2023-03-21T06:22:57;7.80;1.00
7822;DHT22;3956;50.558;9.678;2023-03-21T06:25:26;7.70;1.00
7822;DHT22;3956;50.558;9.678;2023-03-21T06:28:00;7.90;1.00
7822;DHT22;3956;50.558;9.678;2023-03-21T06:30:42;7.90;1.00
7822;DHT22;3956;50.558;9.678;2023-03-21T06:33:27;8.00;1.00
7822;DHT22;3956;50.558;9.678;2023-03-21T06:36:13;8.10;1.00
7822;DHT22;3956;50.558;9.678;2023-03-21T06:38:53;8.20;1.00
7822;DHT22;3956;50.558;9.678;2023-03-21T06:41:58;8.30;1.00
7822;DHT22;3956;50.558;9.678;2023-03-21T06:44:28;8.20;1.00
7822;DHT22;3956;50.558;9.678;2023-03-21T06:47:01;8.00;1.00
7822;DHT22;3956;50.558;9.678;2023-03-21T06:49:35;8.20;1.00
7822;DHT22;3956;50.558;9.678;2023-03-21T06:52:03;8.30;1.00
7822;DHT22;3956;50.558;9.678;2023-03-21T06:54:33;8.40;1.00
7822;DHT22;3956;50.558;9.678;2023-03-21T06:57:02;8.40;1.00
7822;DHT22;3956;50.558;9.678;2023-03-21T06:59:32;8.30;1.00
7822;DHT22;3956;50.558;9.678;2023-03-21T07:02:00;8.20;1.00
7822;DHT22;3956;50.558;9.678;2023-03-21T07:04:29;8.20;1.00
7822;DHT22;3956;50.558;9.678;2023-03-21T07:06:59;8.20;1.00
7822;DHT22;3956;50.558;9.678;2023-03-21T07:09:29;8.30;1.00
7822;DHT22;3956;50.558;9.678;2023-03-21T07:12:01;8.40;1.00
7822;DHT22;3956;50.558;9.678;2023-03-21T07:14:30;8.50;1.00
7822;DHT22;3956;50.558;9.678;2023-03-21T07:17:00;8.50;1.00
7822;DHT22;3956;50.558;9.678;2023-03-21T07:19:28;8.60;1.00
7822;DHT22;3956;50.558;9.678;2023-03-21T07:21:57;8.60;1.00
7822;DHT22;3956;50.558;9.678;2023-03-21T07:24:41;8.80;1.00
7822;DHT22;3956;50.558;9.678;2023-03-21T07:27:33;9.20;1.00
7822;DHT22;3956;50.558;9.678;2023-03-21T07:30:09;11.80;1.00
7822;DHT22;3956;50.558;9.678;2023-03-21T07:32:38;15.30;1.00
7822;DHT22;3956;50.558;9.678;2023-03-21T07:35:12;13.20;1.00
7822;DHT22;3956;50.558;9.678;2023-03-21T07:37:46;12.70;1.00
7822;DHT22;3956;50.558;9.678;2023-03-21T07:40:30;12.00;1.00
7822;DHT22;3956;50.558;9.678;2023-03-21T07:43:03;11.30;1.00
7822;DHT22;3956;50.558;9.678;2023-03-21T07:45:49;11.60;1.00
7822;DHT22;3956;50.558;9.678;2023-03-21T07:48:17;12.30;1.00
7822;DHT22;3956;50.558;9.678;2023-03-21T07:50:45;12.50;1.00
7822;DHT22;3956;50.558;9.678;2023-03-21T07:53:15;15.30;1.00
7822;DHT22;3956;50.558;9.678;2023-03-21T07:55:48;17.40;1.00
7822;DHT22;3956;50.558;9.678;2023-03-21T07:58:17;17.50;1.00
7822;DHT22;3956;50.558;9.678;2023-03-21T08:00:46;18.30;1.00
7822;DHT22;3956;50.558;9.678;2023-03-21T08:03:17;15.70;1.00
7822;DHT22;3956;50.558;9.678;2023-03-21T08:05:46;13.60;1.00
7822;DHT22;3956;50.558;9.678;2023-03-21T08:08:16;13.30;1.00
7822;DHT22;3956;50.558;9.678;2023-03-21T08:10:46;14.80;1.00
7822;DHT22;3956;50.558;9.678;2023-03-21T08:13:17;15.40;1.00
7822;DHT22;3956;50.558;9.678;2023-03-21T08:15:45;14.60;1.00
7822;DHT22;3956;50.558;9.678;2023-03-21T08:18:14;16.80;1.00
7822;DHT22;3956;50.558;9.678;2023-03-21T08:20:45;16.30;1.00
7822;DHT22;3956;50.558;9.678;2023-03-21T08:23:18;15.00;1.00
7822;DHT22;3956;50.558;9.678;2023-03-21T08:25:51;17.70;1.00
7822;DHT22;3956;50.558;9.678;2023-03-21T08:28:21;16.00;1.00
7822;DHT22;3956;50.558;9.678;2023-03-21T08:30:50;14.50;1.00
7822;DHT22;3956;50.558;9.678;2023-03-21T08:33:18;13.80;1.00
7822;DHT22;3956;50.558;9.678;2023-03-21T08:38:40;15.30;1.00
7822;DHT22;3956;50.558;9.678;2023-03-21T08:41:10;12.70;1.00
7822;DHT22;3956;50.558;9.678;2023-03-21T08:43:38;11.70;1.00
7822;DHT22;3956;50.558;9.678;2023-03-21T08:46:07;13.10;1.00
7822;DHT22;3956;50.558;9.678;2023-03-21T08:48:37;12.50;1.00
7822;DHT22;3956;50.558;9.678;2023-03-21T08:51:05;12.30;1.00
7822;DHT22;3956;50.558;9.678;2023-03-21T08:53:34;12.00;1.00
7822;DHT22;3956;50.558;9.678;2023-03-21T08:56:02;12.70;1.00
7822;DHT22;3956;50.558;9.678;2023-03-21T08:58:32;12.70;1.00
7822;DHT22;3956;50.558;9.678;2023-03-21T09:01:04;12.20;1.00
7822;DHT22;3956;50.558;9.678;2023-03-21T09:03:34;13.00;1.00
7822;DHT22;3956;50.558;9.678;2023-03-21T09:06:03;13.60;1.00
7822;DHT22;3956;50.558;9.678;2023-03-21T09:08:31;13.40;1.00
7822;DHT22;3956;50.558;9.678;2023-03-21T09:11:02;14.40;1.00
7822;DHT22;3956;50.558;9.678;2023-03-21T09:13:42;13.10;1.00
7822;DHT22;3956;50.558;9.678;2023-03-21T09:16:11;12.40;1.00
7822;DHT22;3956;50.558;9.678;2023-03-21T09:18:40;12.60;1.00
7822;DHT22;3956;50.558;9.678;2023-03-21T09:21:17;12.80;1.00
7822;DHT22;3956;50.558;9.678;2023-03-21T09:23:46;12.60;1.00
7822;DHT22;3956;50.558;9.678;2023-03-21T09:26:18;12.80;1.00
7822;DHT22;3956;50.558;9.678;2023-03-21T09:28:49;12.40;1.00
7822;DHT22;3956;50.558;9.678;2023-03-21T09:31:18;12.60;1.00
7822;DHT22;3956;50.558;9.678;2023-03-21T09:33:50;12.90;1.00
7822;DHT22;3956;50.558;9.678;2023-03-21T09:36:27;12.90;1.00
7822;DHT22;3956;50.558;9.678;2023-03-21T09:38:58;12.80;1.00
7822;DHT22;3956;50.558;9.678;2023-03-21T09:41:46;13.00;1.00
7822;DHT22;3956;50.558;9.678;2023-03-21T09:44:38;13.20;1.00
7822;DHT22;3956;50.558;9.678;2023-03-21T09:47:15;12.80;1.00
7822;DHT22;3956;50.558;9.678;2023-03-21T09:49:49;13.00;1.00
7822;DHT22;3956;50.558;9.678;2023-03-21T09:52:41;12.90;1.00
7822;DHT22;3956;50.558;9.678;2023-03-21T09:55:15;12.80;1.00
7822;DHT22;3956;50.558;9.678;2023-03-21T09:58:03;12.30;1.00
7822;DHT22;3956;50.558;9.678;2023-03-21T10:00:44;12.70;1.00
7822;DHT22;3956;50.558;9.678;2023-03-21T10:03:20;12.50;1.00
7822;DHT22;3956;50.558;9.678;2023-03-21T10:05:50;13.00;1.00
7822;DHT22;3956;50.558;9.678;2023-03-21T10:08:28;13.00;1.00
7822;DHT22;3956;50.558;9.678;2023-03-21T10:11:00;13.20;1.00
7822;DHT22;3956;50.558;9.678;2023-03-21T10:13:33;13.60;1.00
7822;DHT22;3956;50.558;9.678;2023-03-21T10:16:12;13.00;1.00
7822;DHT22;3956;50.558;9.678;2023-03-21T10:18:47;13.10;1.00
7822;DHT22;3956;50.558;9.678;2023-03-21T10:21:19;13.30;1.00
7822;DHT22;3956;50.558;9.678;2023-03-21T10:24:11;13.10;1.00
7822;DHT22;3956;50.558;9.678;2023-03-21T10:26:42;13.50;1.00
7822;DHT22;3956;50.558;9.678;2023-03-21T10:29:14;13.80;1.00
7822;DHT22;3956;50.558;9.678;2023-03-21T10:31:51;13.20;1.00
7822;DHT22;3956;50.558;9.678;2023-03-21T10:34:26;13.10;1.00
7822;DHT22;3956;50.558;9.678;2023-03-21T10:36:55;13.50;1.00
7822;DHT22;3956;50.558;9.678;2023-03-21T10:39:33;12.80;1.00
7822;DHT22;3956;50.558;9.678;2023-03-21T10:42:17;13.20;1.00
7822;DHT22;3956;50.558;9.678;2023-03-21T10:44:49;13.60;1.00
7822;DHT22;3956;50.558;9.678;2023-03-21T10:47:30;13.40;1.00
7822;DHT22;3956;50.558;9.678;2023-03-21T10:50:03;13.10;1.00
7822;DHT22;3956;50.558;9.678;2023-03-21T10:52:40;13.30;1.00
7822;DHT22;3956;50.558;9.678;2023-03-21T10:55:19;13.00;1.00
7822;DHT22;3956;50.558;9.678;2023-03-21T10:57:58;13.20;1.00
7822;DHT22;3956;50.558;9.678;2023-03-21T11:00:32;13.40;1.00
7822;DHT22;3956;50.558;9.678;2023-03-21T11:03:04;13.40;1.00
7822;DHT22;3956;50.558;9.678;2023-03-21T11:05:34;12.90;1.00
7822;DHT22;3956;50.558;9.678;2023-03-21T11:08:06;12.90;1.00
7822;DHT22;3956;50.558;9.678;2023-03-21T11:10:59;13.30;1.00
7822;DHT22;3956;50.558;9.678;2023-03-21T11:13:33;12.90;1.00
7822;DHT22;3956;50.558;9.678;2023-03-21T11:16:07;13.00;1.00
7822;DHT22;3956;50.558;9.678;2023-03-21T11:18:41;13.30;1.00
7822;DHT22;3956;50.558;9.678;2023-03-21T11:21:11;13.20;1.00
7822;DHT22;3956;50.558;9.678;2023-03-21T11:23:43;12.90;1.00
7822;DHT22;3956;50.558;9.678;2023-03-21T11:26:19;13.10;1.00
7822;DHT22;3956;50.558;9.678;2023-03-21T11:28:50;13.20;1.00
7822;DHT22;3956;50.558;9.678;2023-03-21T11:31:19;13.00;1.00
7822;DHT22;3956;50.558;9.678;2023-03-21T11:33:54;12.70;1.00
7822;DHT22;3956;50.558;9.678;2023-03-21T11:36:34;12.70;1.00
7822;DHT22;3956;50.558;9.678;2023-03-21T11:39:27;12.70;1.00
7822;DHT22;3956;50.558;9.678;2023-03-21T11:41:57;12.60;1.00
7822;DHT22;3956;50.558;9.678;2023-03-21T11:44:28;12.80;1.00
7822;DHT22;3956;50.558;9.678;2023-03-21T11:46:57;12.90;1.00
7822;DHT22;3956;50.558;9.678;2023-03-21T11:49:27;12.70;1.00
7822;DHT22;3956;50.558;9.678;2023-03-21T11:52:04;12.70;1.00
7822;DHT22;3956;50.558;9.678;2023-03-21T11:55:01;12.50;1.00
7822;DHT22;3956;50.558;9.678;2023-03-21T11:57:58;12.80;1.00
7822;DHT22;3956;50.558;9.678;2023-03-21T12:00:47;12.60;1.00
7822;DHT22;3956;50.558;9.678;2023-03-21T12:03:36;12.60;1.00
7822;DHT22;3956;50.558;9.678;2023-03-21T12:06:24;12.60;1.00
7822;DHT22;3956;50.558;9.678;2023-03-21T12:09:13;12.80;1.00
7822;DHT22;3956;50.558;9.678;2023-03-21T12:12:05;12.70;1.00
7822;DHT22;3956;50.558;9.678;2023-03-21T12:14:46;12.60;1.00
7822;DHT22;3956;50.558;9.678;2023-03-21T12:17:27;12.50;1.00
7822;DHT22;3956;50.558;9.678;2023-03-21T12:20:10;12.40;1.00
7822;DHT22;3956;50.558;9.678;2023-03-21T12:26:39;12.30;1.00
7822;DHT22;3956;50.558;9.678;2023-03-21T12:29:28;12.00;1.00
7822;DHT22;3956;50.558;9.678;2023-03-21T12:32:09;11.60;1.00
7822;DHT22;3956;50.558;9.678;2023-03-21T12:35:11;11.70;1.00
7822;DHT22;3956;50.558;9.678;2023-03-21T12:37:52;11.50;1.00
7822;DHT22;3956;50.558;9.678;2023-03-21T12:40:57;11.50;1.00
7822;DHT22;3956;50.558;9.678;2023-03-21T12:47:00;11.40;1.00
7822;DHT22;3956;50.558;9.678;2023-03-21T12:49:32;11.50;1.00
7822;DHT22;3956;50.558;9.678;2023-03-21T12:52:05;11.50;1.00
7822;DHT22;3956;50.558;9.678;2023-03-21T12:54:38;11.30;1.00
7822;DHT22;3956;50.558;9.678;2023-03-21T12:57:09;11.30;1.00
7822;DHT22;3956;50.558;9.678;2023-03-21T12:59:45;11.20;1.00
7822;DHT22;3956;50.558;9.678;2023-03-21T13:02:25;11.40;1.00
7822;DHT22;3956;50.558;9.678;2023-03-21T13:05:00;11.40;1.00
7822;DHT22;3956;50.558;9.678;2023-03-21T13:07:34;11.10;1.00
7822;DHT22;3956;50.558;9.678;2023-03-21T13:10:13;11.30;88.90
7822;DHT22;3956;50.558;9.678;2023-03-21T13:13:07;11.10;1.00
7822;DHT22;3956;50.558;9.678;2023-03-21T13:15:52;10.80;1.00
7822;DHT22;3956;50.558;9.678;2023-03-21T13:18:34;11.00;1.00
7822;DHT22;3956;50.558;9.678;2023-03-21T13:21:09;10.90;1.00
7822;DHT22;3956;50.558;9.678;2023-03-21T13:23:40;10.70;1.00
7822;DHT22;3956;50.558;9.678;2023-03-21T13:26:32;10.70;1.00
7822;DHT22;3956;50.558;9.678;2023-03-21T13:29:01;10.70;1.00
7822;DHT22;3956;50.558;9.678;2023-03-21T13:31:48;10.40;10.10
7822;DHT22;3956;50.558;9.678;2023-03-21T13:34:34;10.60;5.50
7822;DHT22;3956;50.558;9.678;2023-03-21T13:37:28;10.70;25.50
7822;DHT22;3956;50.558;9.678;2023-03-21T13:40:49;10.60;1.00
7822;DHT22;3956;50.558;9.678;2023-03-21T13:43:51;10.70;1.00
7822;DHT22;3956;50.558;9.678;2023-03-21T13:46:54;10.60;99.90
7822;DHT22;3956;50.558;9.678;2023-03-21T13:50:25;10.50;99.90
7822;DHT22;3956;50.558;9.678;2023-03-21T13:53:19;10.40;1.00
7822;DHT22;3956;50.558;9.678;2023-03-21T13:56:21;10.20;31.90
7822;DHT22;3956;50.558;9.678;2023-03-21T13:58:58;10.20;1.00
7822;DHT22;3956;50.558;9.678;2023-03-21T14:01:56;10.10;1.00
7822;DHT22;3956;50.558;9.678;2023-03-21T14:04:28;10.10;99.90
7822;DHT22;3956;50.558;9.678;2023-03-21T14:07:21;10.20;99.90
7822;DHT22;3956;50.558;9.678;2023-03-21T14:09:51;10.00;1.00
7822;DHT22;3956;50.558;9.678;2023-03-21T14:12:28;10.10;1.00
7822;DHT22;3956;50.558;9.678;2023-03-21T14:15:04;9.70;99.90
7822;DHT22;3956;50.558;9.678;2023-03-21T14:17:52;9.80;1.00
7822;DHT22;3956;50.558;9.678;2023-03-21T14:20:40;9.80;1.00
7822;DHT22;3956;50.558;9.678;2023-03-21T14:23:15;9.90;1.00
7822;DHT22;3956;50.558;9.678;2023-03-21T14:25:46;9.90;99.90
7822;DHT22;3956;50.558;9.678;2023-03-21T14:28:26;9.80;1.00
7822;DHT22;3956;50.558;9.678;2023-03-21T14:30:59;9.90;74.90
7822;DHT22;3956;50.558;9.678;2023-03-21T14:34:11;9.80;1.00
7822;DHT22;3956;50.558;9.678;2023-03-21T14:37:06;10.10;99.90
7822;DHT22;3956;50.558;9.678;2023-03-21T14:40:07;9.90;1.00
7822;DHT22;3956;50.558;9.678;2023-03-21T14:42:37;9.90;1.00
7822;DHT22;3956;50.558;9.678;2023-03-21T14:45:25;10.00;1.00
7822;DHT22;3956;50.558;9.678;2023-03-21T14:47:59;9.90;1.00
7822;DHT22;3956;50.558;9.678;2023-03-21T14:50:33;10.00;1.00
7822;DHT22;3956;50.558;9.678;2023-03-21T14:53:08;10.10;1.00
7822;DHT22;3956;50.558;9.678;2023-03-21T14:55:47;10.10;1.00
7822;DHT22;3956;50.558;9.678;2023-03-21T14:58:19;10.00;99.90
7822;DHT22;3956;50.558;9.678;2023-03-21T15:00:51;10.00;99.90
7822;DHT22;3956;50.558;9.678;2023-03-21T15:03:26;10.00;99.90
7822;DHT22;3956;50.558;9.678;2023-03-21T15:06:01;9.90;99.90
7822;DHT22;3956;50.558;9.678;2023-03-21T15:08:35;9.80;1.00
7822;DHT22;3956;50.558;9.678;2023-03-21T15:11:19;9.80;1.00
7822;DHT22;3956;50.558;9.678;2023-03-21T15:14:15;9.70;1.00
7822;DHT22;3956;50.558;9.678;2023-03-21T15:16:50;9.20;1.00
7822;DHT22;3956;50.558;9.678;2023-03-21T15:19:31;9.30;99.90
7822;DHT22;3956;50.558;9.678;2023-03-21T15:22:18;9.20;99.90
7822;DHT22;3956;50.558;9.678;2023-03-21T15:24:55;9.20;99.90
7822;DHT22;3956;50.558;9.678;2023-03-21T15:27:40;9.20;99.90
7822;DHT22;3956;50.558;9.678;2023-03-21T15:30:17;9.40;1.00
7822;DHT22;3956;50.558;9.678;2023-03-21T15:33:07;9.30;1.00
7822;DHT22;3956;50.558;9.678;2023-03-21T15:35:38;9.50;1.00
7822;DHT22;3956;50.558;9.678;2023-03-21T15:38:31;9.30;99.90
7822;DHT22;3956;50.558;9.678;2023-03-21T15:41:54;9.10;99.90
7822;DHT22;3956;50.558;9.678;2023-03-21T15:47:38;9.40;99.90
7822;DHT22;3956;50.558;9.678;2023-03-21T15:50:15;9.20;99.90
7822;DHT22;3956;50.558;9.678;2023-03-21T15:53:13;9.20;99.90
7822;DHT22;3956;50.558;9.678;2023-03-21T15:55:46;9.00;99.90
7822;DHT22;3956;50.558;9.678;2023-03-21T15:58:19;8.90;99.90
7822;DHT22;3956;50.558;9.678;2023-03-21T16:00:50;8.90;99.90
7822;DHT22;3956;50.558;9.678;2023-03-21T16:03:28;8.90;99.90
7822;DHT22;3956;50.558;9.678;2023-03-21T16:06:07;9.00;99.90
7822;DHT22;3956;50.558;9.678;2023-03-21T16:08:44;9.00;99.90
7822;DHT22;3956;50.558;9.678;2023-03-21T16:11:22;8.70;99.90
7822;DHT22;3956;50.558;9.678;2023-03-21T16:13:54;8.80;99.90
7822;DHT22;3956;50.558;9.678;2023-03-21T16:16:41;8.80;99.90
7822;DHT22;3956;50.558;9.678;2023-03-21T16:19:19;8.80;99.90
7822;DHT22;3956;50.558;9.678;2023-03-21T16:22:21;8.80;99.90
7822;DHT22;3956;50.558;9.678;2023-03-21T16:24:52;8.80;99.90
7822;DHT22;3956;50.558;9.678;2023-03-21T16:27:21;8.80;99.90
7822;DHT22;3956;50.558;9.678;2023-03-21T16:29:52;8.50;99.90
7822;DHT22;3956;50.558;9.678;2023-03-21T16:32:31;8.70;99.90
7822;DHT22;3956;50.558;9.678;2023-03-21T16:35:46;8.80;99.90
7822;DHT22;3956;50.558;9.678;2023-03-21T16:38:29;8.80;99.90
7822;DHT22;3956;50.558;9.678;2023-03-21T16:41:00;8.90;99.90
7822;DHT22;3956;50.558;9.678;2023-03-21T16:43:30;8.90;99.90
7822;DHT22;3956;50.558;9.678;2023-03-21T16:46:00;8.90;99.90
7822;DHT22;3956;50.558;9.678;2023-03-21T16:48:28;8.70;99.90
7822;DHT22;3956;50.558;9.678;2023-03-21T16:50:58;8.70;99.90
7822;DHT22;3956;50.558;9.678;2023-03-21T16:53:28;8.70;99.90
7822;DHT22;3956;50.558;9.678;2023-03-21T16:59:31;8.70;99.90
7822;DHT22;3956;50.558;9.678;2023-03-21T17:02:07;8.70;99.90
7822;DHT22;3956;50.558;9.678;2023-03-21T17:04:57;8.70;99.90
7822;DHT22;3956;50.558;9.678;2023-03-21T17:07:34;8.60;99.90
7822;DHT22;3956;50.558;9.678;2023-03-21T17:10:25;8.80;99.90
7822;DHT22;3956;50.558;9.678;2023-03-21T17:12:58;8.70;99.90
7822;DHT22;3956;50.558;9.678;2023-03-21T17:15:37;8.70;99.90
7822;DHT22;3956;50.558;9.678;2023-03-21T17:18:18;8.70;99.90
7822;DHT22;3956;50.558;9.678;2023-03-21T17:21:16;8.70;99.90
7822;DHT22;3956;50.558;9.678;2023-03-21T17:23:50;8.70;99.90
7822;DHT22;3956;50.558;9.678;2023-03-21T17:26:37;8.80;99.90
7822;DHT22;3956;50.558;9.678;2023-03-21T17:29:14;8.70;99.90
7822;DHT22;3956;50.558;9.678;2023-03-21T17:31:53;8.70;99.90
7822;DHT22;3956;50.558;9.678;2023-03-21T17:34:49;8.70;99.90
7822;DHT22;3956;50.558;9.678;2023-03-21T17:37:32;8.90;99.90
7822;DHT22;3956;50.558;9.678;2023-03-21T17:40:17;8.90;99.90
7822;DHT22;3956;50.558;9.678;2023-03-21T17:42:52;8.80;99.90
7822;DHT22;3956;50.558;9.678;2023-03-21T17:45:21;9.00;99.90
7822;DHT22;3956;50.558;9.678;2023-03-21T17:47:52;8.90;99.90
7822;DHT22;3956;50.558;9.678;2023-03-21T17:50:29;9.00;99.90
7822;DHT22;3956;50.558;9.678;2023-03-21T17:53:11;9.00;99.90